Time,TemperatureF,DewpointF,PressureIn,WindDirection,WindDirectionDegrees,WindSpeedMPH,WindSpeedGustMPH,Humidity,HourlyPrecipIn,Conditions,Clouds,dailyrainin,SoftwareType,DateUTC
2013-03-11 00:51:00,52.2,32.0,29.99,South,175,0.0,1.0,47,0.00,,,0.00,weatherlink.com 1.10,2013-03-11 04:51:00,
2013-03-11 01:06:00,52.1,32.0,29.98,SE,141,0.0,1.0,47,0.00,,,0.00,weatherlink.com 1.10,2013-03-11 05:06:00,
2013-03-11 01:51:00,52.6,32.0,29.97,SSE,156,0.0,2.0,46,0.00,,,0.00,weatherlink.com 1.10,2013-03-11 05:51:00,
2013-03-11 02:06:00,52.9,32.0,29.96,ESE,122,0.0,3.0,46,0.00,,,0.00,weatherlink.com 1.10,2013-03-11 06:06:00,
2013-03-11 02:21:00,53.1,32.0,29.96,South,174,2.0,2.0,45,0.00,,,0.00,weatherlink.com 1.10,2013-03-11 06:21:00,
2013-03-11 02:51:00,52.9,32.0,29.94,West,264,0.0,3.0,46,0.00,,,0.00,weatherlink.com 1.10,2013-03-11 06:51:00,
2013-03-11 03:21:00,52.5,33.0,29.95,South,175,0.0,0.0,47,0.00,,,0.00,weatherlink.com 1.10,2013-03-11 07:21:00,
2013-03-11 03:36:00,51.6,33.0,29.93,SE,142,0.0,2.0,50,0.00,,,0.00,weatherlink.com 1.10,2013-03-11 07:36:00,
2013-03-11 03:51:00,50.7,35.0,29.92,SSE,161,0.0,2.0,55,0.00,,,0.00,weatherlink.com 1.10,2013-03-11 07:51:00,
2013-03-11 04:36:00,48.4,36.0,29.91,SSE,161,0.0,0.0,63,0.00,,,0.00,weatherlink.com 1.10,2013-03-11 08:36:00,
2013-03-11 04:51:00,47.6,35.0,29.91,SSE,161,0.0,0.0,62,0.00,,,0.00,weatherlink.com 1.10,2013-03-11 08:51:00,
2013-03-11 05:06:00,46.9,36.0,29.91,SSE,161,0.0,0.0,66,0.00,,,0.00,weatherlink.com 1.10,2013-03-11 09:06:00,
2013-03-11 05:21:00,46.4,37.0,29.90,SSE,161,0.0,0.0,69,0.00,,,0.00,weatherlink.com 1.10,2013-03-11 09:21:00,
2013-03-11 05:36:00,45.8,37.0,29.90,SSE,161,0.0,0.0,70,0.00,,,0.00,weatherlink.com 1.10,2013-03-11 09:36:00,
2013-03-11 05:51:00,45.4,37.0,29.90,SSE,161,0.0,0.0,72,0.00,,,0.00,weatherlink.com 1.10,2013-03-11 09:51:00,
2013-03-11 06:07:00,45.2,37.0,29.90,SSE,161,0.0,0.0,72,0.00,,,0.00,weatherlink.com 1.10,2013-03-11 10:07:00,
2013-03-11 06:22:00,45.0,36.0,29.91,SSE,161,0.0,0.0,72,0.00,,,0.00,weatherlink.com 1.10,2013-03-11 10:22:00,
2013-03-11 06:37:00,44.7,37.0,29.91,SSE,161,0.0,0.0,73,0.00,,,0.00,weatherlink.com 1.10,2013-03-11 10:37:00,
2013-03-11 06:52:00,44.2,36.0,29.91,SSE,161,0.0,0.0,74,0.00,,,0.00,weatherlink.com 1.10,2013-03-11 10:52:00,
2013-03-11 07:07:00,43.8,36.0,29.92,SSE,161,0.0,0.0,74,0.00,,,0.00,weatherlink.com 1.10,2013-03-11 11:07:00,
2013-03-11 07:22:00,43.6,35.0,29.92,SSE,161,0.0,0.0,73,0.00,,,0.00,weatherlink.com 1.10,2013-03-11 11:22:00,
2013-03-11 07:37:00,43.5,36.0,29.91,SSE,161,0.0,0.0,74,0.00,,,0.00,weatherlink.com 1.10,2013-03-11 11:37:00,
2013-03-11 07:52:00,43.2,36.0,29.92,SSE,161,0.0,0.0,75,0.00,,,0.00,weatherlink.com 1.10,2013-03-11 11:52:00,
2013-03-11 08:07:00,43.3,36.0,29.92,SSE,161,0.0,0.0,76,0.00,,,0.00,weatherlink.com 1.10,2013-03-11 12:07:00,
2013-03-11 08:22:00,43.4,36.0,29.92,SSE,161,0.0,0.0,76,0.00,,,0.00,weatherlink.com 1.10,2013-03-11 12:22:00,
2013-03-11 08:37:00,43.7,37.0,29.92,SSE,161,0.0,0.0,77,0.00,,,0.00,weatherlink.com 1.10,2013-03-11 12:37:00,
2013-03-11 08:52:00,44.0,37.0,29.92,SSE,161,0.0,0.0,76,0.00,,,0.00,weatherlink.com 1.10,2013-03-11 12:52:00,
2013-03-11 09:07:00,44.7,37.0,29.93,SSE,161,0.0,0.0,75,0.00,,,0.00,weatherlink.com 1.10,2013-03-11 13:07:00,
2013-03-11 09:22:00,45.6,38.0,29.93,SSE,161,0.0,0.0,76,0.00,,,0.00,weatherlink.com 1.10,2013-03-11 13:22:00,
2013-03-11 09:37:00,46.5,38.0,29.93,SSE,161,0.0,0.0,73,0.00,,,0.00,weatherlink.com 1.10,2013-03-11 13:37:00,
2013-03-11 09:52:00,47.7,37.0,29.92,SSE,161,0.0,0.0,66,0.00,,,0.00,weatherlink.com 1.10,2013-03-11 13:52:00,
2013-03-11 10:07:00,49.0,39.0,29.93,SSE,161,0.0,0.0,68,0.00,,,0.00,weatherlink.com 1.10,2013-03-11 14:07:00,
2013-03-11 10:22:00,50.8,37.0,29.92,SSE,161,0.0,1.0,59,0.00,,,0.00,weatherlink.com 1.10,2013-03-11 14:22:00,
2013-03-11 10:37:00,52.1,38.0,29.91,South,178,0.0,1.0,58,0.00,,,0.00,weatherlink.com 1.10,2013-03-11 14:37:00,
2013-03-11 10:52:00,53.4,36.0,29.92,South,173,0.0,2.0,53,0.00,,,0.00,weatherlink.com 1.10,2013-03-11 14:52:00,
2013-03-11 11:07:00,54.8,35.0,29.91,SSW,193,0.0,3.0,48,0.00,,,0.00,weatherlink.com 1.10,2013-03-11 15:07:00,
2013-03-11 11:22:00,55.8,36.0,29.90,SSW,209,0.0,2.0,47,0.00,,,0.00,weatherlink.com 1.10,2013-03-11 15:22:00,
2013-03-11 11:37:00,56.3,35.0,29.89,SW,226,1.0,3.0,45,0.00,,,0.00,weatherlink.com 1.10,2013-03-11 15:37:00,
2013-03-11 11:52:00,57.4,35.0,29.89,SW,222,1.0,4.0,43,0.00,,,0.00,weatherlink.com 1.10,2013-03-11 15:52:00,
2013-03-11 12:07:00,58.5,34.0,29.87,ENE,72,0.0,4.0,40,0.00,,,0.00,weatherlink.com 1.10,2013-03-11 16:07:00,
2013-03-11 12:22:00,59.5,34.0,29.86,SW,223,0.0,5.0,38,0.00,,,0.00,weatherlink.com 1.10,2013-03-11 16:22:00,
2013-03-11 12:37:00,61.2,34.0,29.84,SSW,207,1.0,7.0,36,0.00,,,0.00,weatherlink.com 1.10,2013-03-11 16:37:00,
2013-03-11 12:52:00,61.1,34.0,29.85,ESE,122,2.0,6.0,36,0.00,,,0.00,weatherlink.com 1.10,2013-03-11 16:52:00,
2013-03-11 13:07:00,61.8,34.0,29.82,SSW,193,0.0,4.0,35,0.00,,,0.00,weatherlink.com 1.10,2013-03-11 17:07:00,
2013-03-11 13:22:00,62.3,33.0,29.83,SSW,197,2.0,7.0,34,0.00,,,0.00,weatherlink.com 1.10,2013-03-11 17:22:00,
2013-03-11 13:37:00,62.7,32.0,29.82,ESE,109,3.0,6.0,32,0.00,,,0.00,weatherlink.com 1.10,2013-03-11 17:37:00,
2013-03-11 13:52:00,63.0,33.0,29.81,SW,215,9.0,9.0,32,0.00,,,0.00,weatherlink.com 1.10,2013-03-11 17:52:00,
2013-03-11 14:07:00,63.6,33.0,29.80,WSW,243,4.0,6.0,32,0.00,,,0.00,weatherlink.com 1.10,2013-03-11 18:07:00,
2013-03-11 14:22:00,63.6,32.0,29.79,SSW,204,0.0,9.0,31,0.00,,,0.00,weatherlink.com 1.10,2013-03-11 18:22:00,
2013-03-11 14:37:00,63.2,33.0,29.78,ESE,113,0.0,7.0,32,0.00,,,0.00,weatherlink.com 1.10,2013-03-11 18:37:00,
2013-03-11 14:52:00,62.9,32.0,29.78,SW,217,1.0,4.0,32,0.00,,,0.00,weatherlink.com 1.10,2013-03-11 18:52:00,
2013-03-11 15:08:00,62.3,33.0,29.78,NW,324,2.0,11.0,34,0.00,,,0.00,weatherlink.com 1.10,2013-03-11 19:08:00,
2013-03-11 15:23:00,61.0,35.0,29.77,ESE,123,0.0,13.0,38,0.00,,,0.00,weatherlink.com 1.10,2013-03-11 19:23:00,
2013-03-11 15:38:00,60.4,34.0,29.76,ENE,74,1.0,4.0,38,0.00,,,0.00,weatherlink.com 1.10,2013-03-11 19:38:00,
2013-03-11 16:08:00,60.6,32.0,29.75,West,279,7.0,9.0,34,0.00,,,0.00,weatherlink.com 1.10,2013-03-11 20:08:00,
2013-03-11 16:23:00,60.7,31.0,29.73,SSW,211,2.0,5.0,33,0.00,,,0.00,weatherlink.com 1.10,2013-03-11 20:23:00,
2013-03-11 16:38:00,60.8,31.0,29.73,South,176,2.0,12.0,32,0.00,,,0.00,weatherlink.com 1.10,2013-03-11 20:38:00,
2013-03-11 16:53:00,60.6,31.0,29.71,SW,224,0.0,10.0,33,0.00,,,0.00,weatherlink.com 1.10,2013-03-11 20:53:00,
2013-03-11 17:08:00,60.4,31.0,29.70,SE,133,3.0,8.0,33,0.00,,,0.00,weatherlink.com 1.10,2013-03-11 21:08:00,
2013-03-11 17:23:00,60.0,32.0,29.70,ESE,112,0.0,7.0,35,0.00,,,0.00,weatherlink.com 1.10,2013-03-11 21:23:00,
2013-03-11 17:38:00,59.6,32.0,29.70,SW,217,3.0,9.0,36,0.00,,,0.00,weatherlink.com 1.10,2013-03-11 21:38:00,
2013-03-11 17:53:00,59.5,34.0,29.70,NE,37,1.0,8.0,38,0.00,,,0.00,weatherlink.com 1.10,2013-03-11 21:53:00,
2013-03-11 18:08:00,59.4,35.0,29.68,East,100,5.0,9.0,40,0.00,,,0.00,weatherlink.com 1.10,2013-03-11 22:08:00,
2013-03-11 18:23:00,59.4,36.0,29.69,ENE,61,2.0,9.0,42,0.00,,,0.00,weatherlink.com 1.10,2013-03-11 22:23:00,
2013-03-11 18:38:00,59.1,38.0,29.68,ESE,120,1.0,9.0,45,0.00,,,0.00,weatherlink.com 1.10,2013-03-11 22:38:00,
2013-03-11 18:53:00,58.5,40.0,29.70,North,9,5.0,8.0,50,0.00,,,0.00,weatherlink.com 1.10,2013-03-11 22:53:00,
2013-03-11 19:08:00,56.8,42.0,29.71,SE,133,5.0,14.0,58,0.00,,,0.00,weatherlink.com 1.10,2013-03-11 23:08:00,
2013-03-11 19:23:00,56.0,42.0,29.70,WSW,243,4.0,8.0,60,0.00,,,0.00,weatherlink.com 1.10,2013-03-11 23:23:00,
2013-03-11 19:38:00,55.8,42.0,29.70,NE,46,4.0,9.0,61,0.00,,,0.00,weatherlink.com 1.10,2013-03-11 23:38:00,
2013-03-11 19:53:00,55.7,43.0,29.69,SSW,199,3.0,11.0,62,0.00,,,0.00,weatherlink.com 1.10,2013-03-11 23:53:00,
2013-03-11 20:08:00,55.5,43.0,29.69,South,180,2.0,9.0,64,0.00,,,0.00,weatherlink.com 1.10,2013-03-12 00:08:00,
2013-03-11 20:23:00,55.1,44.0,29.69,SSW,198,1.0,13.0,66,0.00,,,0.00,weatherlink.com 1.10,2013-03-12 00:23:00,
2013-03-11 20:38:00,54.7,44.0,29.70,SW,229,4.0,8.0,67,0.00,,,0.00,weatherlink.com 1.10,2013-03-12 00:38:00,
2013-03-11 20:53:00,54.6,44.0,29.69,WSW,246,0.0,9.0,68,0.00,,,0.00,weatherlink.com 1.10,2013-03-12 00:53:00,
2013-03-11 21:08:00,54.6,44.0,29.67,SSW,207,5.0,7.0,68,0.00,,,0.00,weatherlink.com 1.10,2013-03-12 01:08:00,
2013-03-11 21:23:00,54.9,44.0,29.69,SW,219,1.0,9.0,67,0.00,,,0.00,weatherlink.com 1.10,2013-03-12 01:23:00,
2013-03-11 21:38:00,55.0,44.0,29.69,SE,135,4.0,6.0,67,0.00,,,0.00,weatherlink.com 1.10,2013-03-12 01:38:00,
2013-03-11 21:53:00,54.6,45.0,29.70,West,281,3.0,5.0,71,0.01,,,0.01,weatherlink.com 1.10,2013-03-12 01:53:00,
2013-03-11 22:08:00,53.5,46.0,29.71,SW,219,2.0,3.0,77,0.02,,,0.02,weatherlink.com 1.10,2013-03-12 02:08:00,
2013-03-11 22:23:00,52.3,47.0,29.71,SW,219,0.0,1.0,82,0.03,,,0.03,weatherlink.com 1.10,2013-03-12 02:23:00,
2013-03-11 22:38:00,51.5,47.0,29.71,SSW,198,0.0,4.0,84,0.03,,,0.03,weatherlink.com 1.10,2013-03-12 02:38:00,
2013-03-11 22:53:00,51.5,48.0,29.70,SW,232,2.0,6.0,86,0.04,,,0.05,weatherlink.com 1.10,2013-03-12 02:53:00,
2013-03-11 23:08:00,51.4,48.0,29.72,WNW,284,3.0,3.0,88,0.04,,,0.06,weatherlink.com 1.10,2013-03-12 03:08:00,
2013-03-11 23:23:00,49.0,46.0,29.75,WSW,256,10.0,14.0,88,0.14,,,0.17,weatherlink.com 1.10,2013-03-12 03:23:00,
2013-03-11 23:38:00,47.9,45.0,29.75,West,277,2.0,10.0,90,0.16,,,0.19,weatherlink.com 1.10,2013-03-12 03:38:00,
2013-03-11 23:53:00,47.4,45.0,29.76,West,265,3.0,7.0,91,0.16,,,0.21,weatherlink.com 1.10,2013-03-12 03:53:00,